sensor_id;sensor_type;location;lat;lon;timestamp;pressure;altitude;pressure_sealevel;temperature;humidity
46583;BME280;32309;48.858;8.252;2023-06-22T00:01:13;100191.00;;;23.53;65.92
46583;BME280;32309;48.858;8.252;2023-06-22T00:03:14;100190.88;;;23.46;66.12
46583;BME280;32309;48.858;8.252;2023-06-22T00:05:14;100187.47;;;23.37;66.75
46583;BME280;32309;48.858;8.252;2023-06-22T00:10:11;100238.03;;;23.34;67.74
46583;BME280;32309;48.858;8.252;2023-06-22T00:12:11;100285.78;;;23.41;68.10
46583;BME280;32309;48.858;8.252;2023-06-22T00:14:12;100352.41;;;23.45;68.39
46583;BME280;32309;48.858;8.252;2023-06-22T00:16:12;100408.91;;;23.43;68.15
46583;BME280;32309;48.858;8.252;2023-06-22T00:18:12;100454.56;;;23.46;67.48
46583;BME280;32309;48.858;8.252;2023-06-22T00:20:13;100460.50;;;23.48;68.05
46583;BME280;32309;48.858;8.252;2023-06-22T00:22:14;100422.66;;;23.47;66.52
46583;BME280;32309;48.858;8.252;2023-06-22T00:24:14;100317.03;;;23.46;67.29
46583;BME280;32309;48.858;8.252;2023-06-22T00:26:14;100214.72;;;23.38;68.78
46583;BME280;32309;48.858;8.252;2023-06-22T00:28:15;100169.47;;;23.33;69.42
46583;BME280;32309;48.858;8.252;2023-06-22T00:30:15;100174.88;;;23.16;70.09
46583;BME280;32309;48.858;8.252;2023-06-22T00:32:17;100184.66;;;22.91;71.04
46583;BME280;32309;48.858;8.252;2023-06-22T00:34:18;100199.59;;;22.75;72.43
46583;BME280;32309;48.858;8.252;2023-06-22T00:36:18;100209.88;;;22.54;72.77
46583;BME280;32309;48.858;8.252;2023-06-22T00:38:19;100227.53;;;22.37;73.53
46583;BME280;32309;48.858;8.252;2023-06-22T00:40:20;100244.03;;;22.31;74.20
46583;BME280;32309;48.858;8.252;2023-06-22T00:42:21;100233.97;;;22.26;74.18
46583;BME280;32309;48.858;8.252;2023-06-22T00:44:22;100239.59;;;22.23;74.48
46583;BME280;32309;48.858;8.252;2023-06-22T00:46:22;100238.59;;;22.24;74.50
46583;BME280;32309;48.858;8.252;2023-06-22T00:48:23;100237.75;;;22.23;75.07
46583;BME280;32309;48.858;8.252;2023-06-22T00:50:25;100241.56;;;22.29;75.15
46583;BME280;32309;48.858;8.252;2023-06-22T00:52:27;100237.78;;;22.32;74.55
46583;BME280;32309;48.858;8.252;2023-06-22T00:54:30;100239.59;;;22.23;74.90
46583;BME280;32309;48.858;8.252;2023-06-22T00:56:31;100243.56;;;22.10;75.85
46583;BME280;32309;48.858;8.252;2023-06-22T00:58:32;100234.97;;;22.00;76.45
46583;BME280;32309;48.858;8.252;2023-06-22T01:00:32;100244.00;;;21.89;77.69
46583;BME280;32309;48.858;8.252;2023-06-22T01:02:32;100236.75;;;21.83;77.67
46583;BME280;32309;48.858;8.252;2023-06-22T01:04:34;100237.06;;;21.72;77.97
46583;BME280;32309;48.858;8.252;2023-06-22T01:06:38;100229.94;;;21.64;78.35
46583;BME280;32309;48.858;8.252;2023-06-22T01:08:49;100233.25;;;21.66;79.05
46583;BME280;32309;48.858;8.252;2023-06-22T01:11:07;100228.63;;;21.60;79.05
46583;BME280;32309;48.858;8.252;2023-06-22T01:13:29;100236.22;;;21.63;80.05
46583;BME280;32309;48.858;8.252;2023-06-22T01:15:40;100237.69;;;21.57;80.50
46583;BME280;32309;48.858;8.252;2023-06-22T01:18:03;100239.47;;;21.49;81.14
46583;BME280;32309;48.858;8.252;2023-06-22T01:20:04;100240.91;;;21.43;82.02
46583;BME280;32309;48.858;8.252;2023-06-22T01:22:08;100251.09;;;21.38;81.86
46583;BME280;32309;48.858;8.252;2023-06-22T01:24:18;100255.19;;;21.32;82.43
46583;BME280;32309;48.858;8.252;2023-06-22T01:26:41;100260.31;;;21.34;83.29
46583;BME280;32309;48.858;8.252;2023-06-22T01:28:50;100261.78;;;21.28;83.38
46583;BME280;32309;48.858;8.252;2023-06-22T01:30:54;100252.19;;;21.19;84.15
46583;BME280;32309;48.858;8.252;2023-06-22T01:33:03;100258.94;;;21.13;84.45
46583;BME280;32309;48.858;8.252;2023-06-22T01:35:07;100253.09;;;21.01;85.06
46583;BME280;32309;48.858;8.252;2023-06-22T01:37:10;100257.03;;;20.97;85.34
46583;BME280;32309;48.858;8.252;2023-06-22T01:39:10;100256.00;;;20.90;85.54
46583;BME280;32309;48.858;8.252;2023-06-22T01:41:12;100251.22;;;20.85;86.21
46583;BME280;32309;48.858;8.252;2023-06-22T01:43:13;100242.47;;;20.85;86.70
46583;BME280;32309;48.858;8.252;2023-06-22T01:45:13;100245.41;;;20.82;86.83
46583;BME280;32309;48.858;8.252;2023-06-22T01:47:15;100242.78;;;20.82;86.91
46583;BME280;32309;48.858;8.252;2023-06-22T01:49:16;100236.66;;;20.81;87.51
46583;BME280;32309;48.858;8.252;2023-06-22T01:51:17;100243.22;;;20.77;87.44
46583;BME280;32309;48.858;8.252;2023-06-22T01:53:17;100232.88;;;20.75;87.80
46583;BME280;32309;48.858;8.252;2023-06-22T01:55:17;100236.34;;;20.76;87.66
46583;BME280;32309;48.858;8.252;2023-06-22T01:57:18;100227.78;;;20.82;87.46
46583;BME280;32309;48.858;8.252;2023-06-22T02:01:31;100231.13;;;20.84;86.68
46583;BME280;32309;48.858;8.252;2023-06-22T02:03:50;100228.47;;;20.84;86.18
46583;BME280;32309;48.858;8.252;2023-06-22T02:06:03;100226.28;;;20.80;86.35
46583;BME280;32309;48.858;8.252;2023-06-22T02:08:07;100227.44;;;20.77;86.37
46583;BME280;32309;48.858;8.252;2023-06-22T02:10:10;100224.97;;;20.75;86.66
46583;BME280;32309;48.858;8.252;2023-06-22T02:12:16;100222.31;;;20.75;86.82
46583;BME280;32309;48.858;8.252;2023-06-22T02:14:18;100213.78;;;20.73;87.19
46583;BME280;32309;48.858;8.252;2023-06-22T02:16:19;100222.09;;;20.69;87.05
46583;BME280;32309;48.858;8.252;2023-06-22T02:18:20;100218.13;;;20.65;87.12
46583;BME280;32309;48.858;8.252;2023-06-22T02:20:20;100222.41;;;20.66;87.42
46583;BME280;32309;48.858;8.252;2023-06-22T02:22:21;100218.13;;;20.65;86.91
46583;BME280;32309;48.858;8.252;2023-06-22T02:24:21;100218.13;;;20.65;87.13
46583;BME280;32309;48.858;8.252;2023-06-22T02:26:23;100214.16;;;20.60;87.00
46583;BME280;32309;48.858;8.252;2023-06-22T02:28:25;100216.63;;;20.62;87.26
46583;BME280;32309;48.858;8.252;2023-06-22T02:30:25;100208.56;;;20.64;87.36
46583;BME280;32309;48.858;8.252;2023-06-22T02:32:25;100206.78;;;20.64;87.32
46583;BME280;32309;48.858;8.252;2023-06-22T02:34:26;100212.53;;;20.68;86.78
46583;BME280;32309;48.858;8.252;2023-06-22T02:36:26;100203.81;;;20.67;87.23
46583;BME280;32309;48.858;8.252;2023-06-22T02:38:27;100200.50;;;20.65;87.45
46583;BME280;32309;48.858;8.252;2023-06-22T02:40:27;100198.66;;;20.57;87.82
46583;BME280;32309;48.858;8.252;2023-06-22T02:42:29;100192.88;;;20.54;88.06
46583;BME280;32309;48.858;8.252;2023-06-22T02:44:29;100185.28;;;20.51;88.14
46583;BME280;32309;48.858;8.252;2023-06-22T02:46:29;100186.72;;;20.45;88.47
46583;BME280;32309;48.858;8.252;2023-06-22T02:48:30;100189.38;;;20.45;88.19
46583;BME280;32309;48.858;8.252;2023-06-22T02:50:30;100190.69;;;20.49;87.61
46583;BME280;32309;48.858;8.252;2023-06-22T02:52:30;100186.56;;;20.47;87.84
46583;BME280;32309;48.858;8.252;2023-06-22T02:54:30;100180.34;;;20.48;87.57
46583;BME280;32309;48.858;8.252;2023-06-22T02:56:31;100167.97;;;20.48;87.17
46583;BME280;32309;48.858;8.252;2023-06-22T02:58:32;100171.31;;;20.50;86.99
46583;BME280;32309;48.858;8.252;2023-06-22T03:00:38;100174.09;;;20.49;86.79
46583;BME280;32309;48.858;8.252;2023-06-22T03:02:39;100167.31;;;20.46;87.16
46583;BME280;32309;48.858;8.252;2023-06-22T03:04:39;100155.81;;;20.47;86.82
46583;BME280;32309;48.858;8.252;2023-06-22T03:06:39;100165.84;;;20.43;87.16
46583;BME280;32309;48.858;8.252;2023-06-22T03:08:40;100166.66;;;20.44;87.06
46583;BME280;32309;48.858;8.252;2023-06-22T03:10:41;100164.50;;;20.39;86.99
46583;BME280;32309;48.858;8.252;2023-06-22T03:12:42;100155.91;;;20.37;87.21
46583;BME280;32309;48.858;8.252;2023-06-22T03:14:42;100166.28;;;20.39;87.33
46583;BME280;32309;48.858;8.252;2023-06-22T03:16:43;100165.31;;;20.40;87.27
46583;BME280;32309;48.858;8.252;2023-06-22T03:18:43;100170.41;;;20.41;87.45
46583;BME280;32309;48.858;8.252;2023-06-22T03:20:43;100169.59;;;20.41;87.35
46583;BME280;32309;48.858;8.252;2023-06-22T03:22:44;100163.53;;;20.40;87.37
46583;BME280;32309;48.858;8.252;2023-06-22T03:24:44;100166.00;;;20.42;87.30
46583;BME280;32309;48.858;8.252;2023-06-22T03:26:44;100166.81;;;20.42;87.56
46583;BME280;32309;48.858;8.252;2023-06-22T03:28:46;100176.53;;;20.42;87.66
46583;BME280;32309;48.858;8.252;2023-06-22T03:30:47;100163.19;;;20.43;87.46
46583;BME280;32309;48.858;8.252;2023-06-22T03:32:47;100165.66;;;20.45;87.94
46583;BME280;32309;48.858;8.252;2023-06-22T03:34:47;100156.31;;;20.51;87.83
46583;BME280;32309;48.858;8.252;2023-06-22T03:36:48;100154.72;;;20.58;87.43
46583;BME280;32309;48.858;8.252;2023-06-22T03:38:48;100160.03;;;20.66;86.97
46583;BME280;32309;48.858;8.252;2023-06-22T03:40:49;100149.66;;;20.65;86.88
46583;BME280;32309;48.858;8.252;2023-06-22T03:42:50;100144.19;;;20.58;87.43
46583;BME280;32309;48.858;8.252;2023-06-22T03:44:50;100152.06;;;20.50;87.80
46583;BME280;32309;48.858;8.252;2023-06-22T03:46:50;100148.38;;;20.42;87.50
46583;BME280;32309;48.858;8.252;2023-06-22T03:48:50;100148.88;;;20.38;87.87
46583;BME280;32309;48.858;8.252;2023-06-22T03:50:51;100155.63;;;20.40;88.16
46583;BME280;32309;48.858;8.252;2023-06-22T03:52:51;100157.63;;;20.47;87.86
46583;BME280;32309;48.858;8.252;2023-06-22T03:54:52;100150.41;;;20.49;87.29
46583;BME280;32309;48.858;8.252;2023-06-22T03:56:52;100142.81;;;20.45;87.39
46583;BME280;32309;48.858;8.252;2023-06-22T03:58:53;100135.06;;;20.44;88.08
46583;BME280;32309;48.858;8.252;2023-06-22T04:00:53;100144.44;;;20.47;87.85
46583;BME280;32309;48.858;8.252;2023-06-22T04:02:53;100138.41;;;20.54;87.15
46583;BME280;32309;48.858;8.252;2023-06-22T04:04:53;100141.41;;;20.59;87.19
46583;BME280;32309;48.858;8.252;2023-06-22T04:06:54;100141.25;;;20.61;86.79
46583;BME280;32309;48.858;8.252;2023-06-22T04:08:54;100140.44;;;20.60;86.81
46583;BME280;32309;48.858;8.252;2023-06-22T04:10:54;100134.81;;;20.55;86.72
46583;BME280;32309;48.858;8.252;2023-06-22T04:12:55;100134.59;;;20.49;87.02
46583;BME280;32309;48.858;8.252;2023-06-22T04:14:55;100140.69;;;20.49;86.69
46583;BME280;32309;48.858;8.252;2023-06-22T04:16:55;100145.13;;;20.49;86.82
46583;BME280;32309;48.858;8.252;2023-06-22T04:18:56;100133.47;;;20.51;87.03
46583;BME280;32309;48.858;8.252;2023-06-22T04:20:56;100140.69;;;20.49;86.72
46583;BME280;32309;48.858;8.252;2023-06-22T04:22:56;100132.94;;;20.48;86.49
46583;BME280;32309;48.858;8.252;2023-06-22T04:24:56;100127.84;;;20.46;87.05
46583;BME280;32309;48.858;8.252;2023-06-22T04:26:57;100129.84;;;20.52;86.29
46583;BME280;32309;48.858;8.252;2023-06-22T05:20:25;100083.81;;;21.07;86.10
46583;BME280;32309;48.858;8.252;2023-06-22T05:22:28;100078.06;;;21.12;85.92
46583;BME280;32309;48.858;8.252;2023-06-22T05:27:13;100076.13;;;21.39;84.84
46583;BME280;32309;48.858;8.252;2023-06-22T05:29:50;100081.09;;;21.42;84.62
46583;BME280;32309;48.858;8.252;2023-06-22T05:32:06;100075.47;;;21.45;84.67
46583;BME280;32309;48.858;8.252;2023-06-22T05:39:39;100076.00;;;21.73;84.57
46583;BME280;32309;48.858;8.252;2023-06-22T05:42:17;100071.53;;;21.82;84.18
46583;BME280;32309;48.858;8.252;2023-06-22T05:44:59;100073.34;;;21.90;84.31
46583;BME280;32309;48.858;8.252;2023-06-22T05:47:06;100082.56;;;22.02;83.86
46583;BME280;32309;48.858;8.252;2023-06-22T05:49:23;100087.81;;;22.19;82.30
46583;BME280;32309;48.858;8.252;2023-06-22T05:51:35;100082.50;;;22.27;82.39
46583;BME280;32309;48.858;8.252;2023-06-22T05:56:13;100073.38;;;22.54;80.79
46583;BME280;32309;48.858;8.252;2023-06-22T05:58:16;100077.09;;;22.68;79.67
46583;BME280;32309;48.858;8.252;2023-06-22T06:00:23;100072.25;;;22.80;78.91
46583;BME280;32309;48.858;8.252;2023-06-22T06:02:26;100079.69;;;22.85;78.81
46583;BME280;32309;48.858;8.252;2023-06-22T06:04:27;100083.06;;;22.93;77.96
46583;BME280;32309;48.858;8.252;2023-06-22T06:06:27;100082.94;;;22.95;77.54
46583;BME280;32309;48.858;8.252;2023-06-22T06:08:28;100080.75;;;22.99;76.48
46583;BME280;32309;48.858;8.252;2023-06-22T06:10:28;100075.06;;;23.10;76.17
46583;BME280;32309;48.858;8.252;2023-06-22T06:12:32;100071.22;;;23.21;75.14
46583;BME280;32309;48.858;8.252;2023-06-22T06:14:32;100061.13;;;23.24;74.66
46583;BME280;32309;48.858;8.252;2023-06-22T06:16:33;100064.69;;;23.32;74.05
46583;BME280;32309;48.858;8.252;2023-06-22T06:18:33;100057.53;;;23.40;73.67
46583;BME280;32309;48.858;8.252;2023-06-22T06:20:33;100062.03;;;23.55;72.85
46583;BME280;32309;48.858;8.252;2023-06-22T06:22:34;100072.38;;;23.65;71.91
46583;BME280;32309;48.858;8.252;2023-06-22T06:24:34;100060.25;;;23.70;72.06
46583;BME280;32309;48.858;8.252;2023-06-22T06:26:35;100062.81;;;23.79;71.64
46583;BME280;32309;48.858;8.252;2023-06-22T06:50:11;100039.69;;;24.40;70.52
46583;BME280;32309;48.858;8.252;2023-06-22T06:52:18;100041.75;;;24.45;70.35
46583;BME280;32309;48.858;8.252;2023-06-22T06:54:19;100041.75;;;24.45;70.58
46583;BME280;32309;48.858;8.252;2023-06-22T06:56:20;100043.50;;;24.53;70.43
46583;BME280;32309;48.858;8.252;2023-06-22T06:58:24;100039.00;;;24.53;70.61
46583;BME280;32309;48.858;8.252;2023-06-22T07:00:26;100051.53;;;24.59;70.20
46583;BME280;32309;48.858;8.252;2023-06-22T07:02:27;100055.72;;;24.69;69.58
46583;BME280;32309;48.858;8.252;2023-06-22T07:04:30;100041.09;;;24.73;69.75
46583;BME280;32309;48.858;8.252;2023-06-22T07:06:30;100034.06;;;24.80;69.21
46583;BME280;32309;48.858;8.252;2023-06-22T07:08:32;100040.44;;;24.86;68.86
46583;BME280;32309;48.858;8.252;2023-06-22T07:10:32;100036.59;;;24.88;69.06
46583;BME280;32309;48.858;8.252;2023-06-22T07:12:32;100036.66;;;24.95;68.72
46583;BME280;32309;48.858;8.252;2023-06-22T07:14:33;100029.22;;;25.05;68.30
46583;BME280;32309;48.858;8.252;2023-06-22T07:16:33;100039.81;;;25.05;68.11
46583;BME280;32309;48.858;8.252;2023-06-22T07:18:33;100034.31;;;25.07;68.58
46583;BME280;32309;48.858;8.252;2023-06-22T07:20:34;100041.97;;;25.17;67.96
46583;BME280;32309;48.858;8.252;2023-06-22T07:22:34;100022.44;;;25.24;67.92
46583;BME280;32309;48.858;8.252;2023-06-22T07:24:34;100022.16;;;25.34;67.50
46583;BME280;32309;48.858;8.252;2023-06-22T07:26:35;100029.38;;;25.40;67.27
46583;BME280;32309;48.858;8.252;2023-06-22T07:28:35;100021.63;;;25.46;66.08
46583;BME280;32309;48.858;8.252;2023-06-22T07:30:37;100015.75;;;25.50;66.31
46583;BME280;32309;48.858;8.252;2023-06-22T07:32:38;100012.91;;;25.52;66.34
46583;BME280;32309;48.858;8.252;2023-06-22T07:34:38;100012.09;;;25.51;65.88
46583;BME280;32309;48.858;8.252;2023-06-22T07:36:38;100023.72;;;25.50;65.88
46583;BME280;32309;48.858;8.252;2023-06-22T07:38:38;100021.50;;;25.54;66.40
46583;BME280;32309;48.858;8.252;2023-06-22T07:40:39;100016.66;;;25.64;65.96
46583;BME280;32309;48.858;8.252;2023-06-22T07:42:39;100021.78;;;25.66;66.24
46583;BME280;32309;48.858;8.252;2023-06-22T07:44:39;100024.91;;;25.76;66.10
46583;BME280;32309;48.858;8.252;2023-06-22T07:46:40;100022.69;;;25.80;66.17
46583;BME280;32309;48.858;8.252;2023-06-22T07:48:40;100028.63;;;25.82;66.14
46583;BME280;32309;48.858;8.252;2023-06-22T07:50:41;100031.91;;;25.84;65.83
46583;BME280;32309;48.858;8.252;2023-06-22T07:52:42;100042.91;;;25.81;65.76
46583;BME280;32309;48.858;8.252;2023-06-22T07:54:42;100038.28;;;25.89;66.21
46583;BME280;32309;48.858;8.252;2023-06-22T07:56:42;100042.22;;;26.00;66.02
46583;BME280;32309;48.858;8.252;2023-06-22T07:58:43;100044.94;;;26.07;65.84
46583;BME280;32309;48.858;8.252;2023-06-22T08:00:43;100059.72;;;26.16;65.22
46583;BME280;32309;48.858;8.252;2023-06-22T08:02:44;100056.50;;;26.28;65.32
46583;BME280;32309;48.858;8.252;2023-06-22T08:04:44;100063.91;;;26.39;63.99
46583;BME280;32309;48.858;8.252;2023-06-22T08:06:45;100075.19;;;26.48;63.67
46583;BME280;32309;48.858;8.252;2023-06-22T08:08:46;100088.94;;;26.58;63.13
46583;BME280;32309;48.858;8.252;2023-06-22T08:10:48;100104.50;;;26.68;64.19
46583;BME280;32309;48.858;8.252;2023-06-22T08:12:48;100113.78;;;26.79;62.80
46583;BME280;32309;48.858;8.252;2023-06-22T08:14:49;100106.84;;;26.84;61.76
46583;BME280;32309;48.858;8.252;2023-06-22T08:16:50;100117.09;;;26.87;61.56
46583;BME280;32309;48.858;8.252;2023-06-22T08:18:50;100124.88;;;26.96;63.56
46583;BME280;32309;48.858;8.252;2023-06-22T08:20:50;100128.19;;;26.98;62.44
46583;BME280;32309;48.858;8.252;2023-06-22T08:22:50;100132.28;;;27.07;63.18
46583;BME280;32309;48.858;8.252;2023-06-22T08:24:51;100121.44;;;27.09;62.24
46583;BME280;32309;48.858;8.252;2023-06-22T08:26:51;100117.78;;;27.16;64.31
46583;BME280;32309;48.858;8.252;2023-06-22T08:28:52;100104.50;;;27.16;60.92
46583;BME280;32309;48.858;8.252;2023-06-22T08:30:52;100080.94;;;27.20;61.04
46583;BME280;32309;48.858;8.252;2023-06-22T08:32:53;100062.75;;;27.23;60.34
46583;BME280;32309;48.858;8.252;2023-06-22T08:34:55;100051.50;;;27.28;63.46
46583;BME280;32309;48.858;8.252;2023-06-22T08:36:56;100053.31;;;27.28;60.40
46583;BME280;32309;48.858;8.252;2023-06-22T08:38:56;100054.38;;;27.27;60.50
46583;BME280;32309;48.858;8.252;2023-06-22T08:41:02;100057.03;;;27.27;60.00
46583;BME280;32309;48.858;8.252;2023-06-22T08:43:02;100071.81;;;27.43;62.86
46583;BME280;32309;48.858;8.252;2023-06-22T08:45:03;100073.63;;;27.49;59.46
46583;BME280;32309;48.858;8.252;2023-06-22T08:47:04;100066.69;;;27.61;60.28
46583;BME280;32309;48.858;8.252;2023-06-22T08:49:04;100068.50;;;27.74;62.28
46583;BME280;32309;48.858;8.252;2023-06-22T08:51:04;100070.56;;;27.79;61.00
46583;BME280;32309;48.858;8.252;2023-06-22T08:53:05;100064.00;;;27.88;60.46
46583;BME280;32309;48.858;8.252;2023-06-22T08:55:05;100063.75;;;27.96;60.32
46583;BME280;32309;48.858;8.252;2023-06-22T08:57:06;100078.72;;;27.97;60.92
46583;BME280;32309;48.858;8.252;2023-06-22T08:59:06;100066.63;;;27.95;59.16
46583;BME280;32309;48.858;8.252;2023-06-22T09:01:07;100078.75;;;27.84;57.03
46583;BME280;32309;48.858;8.252;2023-06-22T09:03:07;100077.91;;;27.83;57.79
46583;BME280;32309;48.858;8.252;2023-06-22T09:05:08;100067.06;;;27.92;60.65
46583;BME280;32309;48.858;8.252;2023-06-22T09:07:08;100066.03;;;27.93;58.66
46583;BME280;32309;48.858;8.252;2023-06-22T09:09:09;100063.16;;;27.94;59.78
46583;BME280;32309;48.858;8.252;2023-06-22T09:11:09;100064.63;;;27.90;58.41
46583;BME280;32309;48.858;8.252;2023-06-22T09:13:09;100078.94;;;27.89;58.10
46583;BME280;32309;48.858;8.252;2023-06-22T09:15:09;100063.16;;;27.94;58.56
46583;BME280;32309;48.858;8.252;2023-06-22T09:17:10;100056.19;;;28.00;59.03
46583;BME280;32309;48.858;8.252;2023-06-22T09:19:10;100059.66;;;28.07;59.33
46583;BME280;32309;48.858;8.252;2023-06-22T09:21:10;100046.34;;;28.14;59.52
46583;BME280;32309;48.858;8.252;2023-06-22T09:23:11;100039.38;;;28.13;59.43
46583;BME280;32309;48.858;8.252;2023-06-22T09:25:11;100029.97;;;28.03;59.11
46583;BME280;32309;48.858;8.252;2023-06-22T09:27:12;100017.69;;;27.96;58.39
46583;BME280;32309;48.858;8.252;2023-06-22T09:29:12;100015.25;;;27.87;58.13
46583;BME280;32309;48.858;8.252;2023-06-22T09:31:13;99999.06;;;27.89;58.19
46583;BME280;32309;48.858;8.252;2023-06-22T09:33:13;99991.28;;;27.87;57.09
46583;BME280;32309;48.858;8.252;2023-06-22T09:35:13;99987.38;;;27.90;58.28
46583;BME280;32309;48.858;8.252;2023-06-22T09:37:14;99991.03;;;27.96;57.72
46583;BME280;32309;48.858;8.252;2023-06-22T09:39:14;99998.38;;;28.07;57.28
46583;BME280;32309;48.858;8.252;2023-06-22T09:41:14;99998.59;;;28.05;57.40
46583;BME280;32309;48.858;8.252;2023-06-22T09:43:16;100001.88;;;28.01;57.92
46583;BME280;32309;48.858;8.252;2023-06-22T09:45:16;99976.91;;;28.02;57.86
46583;BME280;32309;48.858;8.252;2023-06-22T09:47:17;99958.66;;;27.99;58.38
46583;BME280;32309;48.858;8.252;2023-06-22T09:49:17;99953.09;;;28.00;58.05
46583;BME280;32309;48.858;8.252;2023-06-22T09:51:17;99953.38;;;27.85;57.88
46583;BME280;32309;48.858;8.252;2023-06-22T09:53:19;99967.72;;;27.84;58.71
46583;BME280;32309;48.858;8.252;2023-06-22T09:55:20;99976.13;;;27.81;58.17
46583;BME280;32309;48.858;8.252;2023-06-22T09:57:21;99984.13;;;27.81;58.69
46583;BME280;32309;48.858;8.252;2023-06-22T09:59:21;99982.25;;;27.88;58.79
46583;BME280;32309;48.858;8.252;2023-06-22T10:01:21;99979.19;;;27.92;58.71
46583;BME280;32309;48.858;8.252;2023-06-22T10:03:22;99990.25;;;28.02;58.68
46583;BME280;32309;48.858;8.252;2023-06-22T10:05:23;99988.56;;;28.08;58.78
46583;BME280;32309;48.858;8.252;2023-06-22T10:07:23;99980.16;;;28.11;57.95
46583;BME280;32309;48.858;8.252;2023-06-22T10:09:23;99977.69;;;28.09;57.69
46583;BME280;32309;48.858;8.252;2023-06-22T10:11:24;99985.88;;;28.14;58.63
46583;BME280;32309;48.858;8.252;2023-06-22T10:13:29;99976.63;;;28.23;58.68
46583;BME280;32309;48.858;8.252;2023-06-22T10:15:29;99970.47;;;28.23;58.41
46583;BME280;32309;48.858;8.252;2023-06-22T10:17:29;99963.72;;;28.20;58.56
46583;BME280;32309;48.858;8.252;2023-06-22T10:19:29;99968.22;;;28.20;58.50
46583;BME280;32309;48.858;8.252;2023-06-22T10:21:30;99966.44;;;28.14;57.71
46583;BME280;32309;48.858;8.252;2023-06-22T10:23:30;99967.41;;;28.19;58.87
46583;BME280;32309;48.858;8.252;2023-06-22T10:25:30;99962.84;;;28.27;59.48
46583;BME280;32309;48.858;8.252;2023-06-22T10:27:31;99958.56;;;28.32;59.09
46583;BME280;32309;48.858;8.252;2023-06-22T10:29:31;99954.66;;;28.35;59.07
46583;BME280;32309;48.858;8.252;2023-06-22T10:31:31;99952.34;;;28.38;59.26
46583;BME280;32309;48.858;8.252;2023-06-22T10:33:32;99954.16;;;28.45;59.67
46583;BME280;32309;48.858;8.252;2023-06-22T10:35:32;99948.63;;;28.46;58.92
46583;BME280;32309;48.858;8.252;2023-06-22T10:37:33;99944.75;;;28.42;58.89
46583;BME280;32309;48.858;8.252;2023-06-22T10:39:34;99946.78;;;28.40;59.06
46583;BME280;32309;48.858;8.252;2023-06-22T10:41:35;99951.09;;;28.41;59.26
46583;BME280;32309;48.858;8.252;2023-06-22T10:43:35;99955.00;;;28.38;58.83
46583;BME280;32309;48.858;8.252;2023-06-22T10:45:35;99955.63;;;28.41;58.40
46583;BME280;32309;48.858;8.252;2023-06-22T10:47:36;99948.63;;;28.46;58.95
46583;BME280;32309;48.858;8.252;2023-06-22T10:49:39;99939.78;;;28.52;58.71
46583;BME280;32309;48.858;8.252;2023-06-22T10:51:40;99946.69;;;28.60;58.78
46583;BME280;32309;48.858;8.252;2023-06-22T10:53:41;99949.16;;;28.62;58.53
46583;BME280;32309;48.858;8.252;2023-06-22T10:55:41;99947.50;;;28.61;57.54
46583;BME280;32309;48.858;8.252;2023-06-22T10:57:41;99945.44;;;28.63;57.56
46583;BME280;32309;48.858;8.252;2023-06-22T10:59:44;99950.72;;;28.76;57.51
46583;BME280;32309;48.858;8.252;2023-06-22T11:01:44;99955.56;;;28.86;57.02
46583;BME280;32309;48.858;8.252;2023-06-22T11:03:44;99961.69;;;28.93;57.86
46583;BME280;32309;48.858;8.252;2023-06-22T11:05:45;99960.78;;;28.99;57.49
46583;BME280;32309;48.858;8.252;2023-06-22T11:07:47;99953.06;;;28.91;57.00
46583;BME280;32309;48.858;8.252;2023-06-22T11:09:49;99949.31;;;28.99;57.43
46583;BME280;32309;48.858;8.252;2023-06-22T11:11:50;99940.38;;;29.12;57.16
46583;BME280;32309;48.858;8.252;2023-06-22T11:13:53;99937.03;;;29.16;56.79
46583;BME280;32309;48.858;8.252;2023-06-22T11:15:53;99935.94;;;29.24;56.75
46583;BME280;32309;48.858;8.252;2023-06-22T11:17:53;99939.63;;;29.30;57.37
46583;BME280;32309;48.858;8.252;2023-06-22T11:19:54;99929.72;;;29.37;57.00
46583;BME280;32309;48.858;8.252;2023-06-22T11:21:54;99928.28;;;29.34;56.56
46583;BME280;32309;48.858;8.252;2023-06-22T11:23:54;99925.00;;;29.32;56.32
46583;BME280;32309;48.858;8.252;2023-06-22T11:25:54;99925.84;;;29.33;56.17
46583;BME280;32309;48.858;8.252;2023-06-22T11:27:55;99929.47;;;29.38;56.40
46583;BME280;32309;48.858;8.252;2023-06-22T11:29:55;99924.69;;;29.47;56.35
46583;BME280;32309;48.858;8.252;2023-06-22T11:31:56;99924.22;;;29.50;56.31
46583;BME280;32309;48.858;8.252;2023-06-22T11:33:56;99925.19;;;29.56;56.41
46583;BME280;32309;48.858;8.252;2023-06-22T11:35:56;99936.38;;;29.46;55.92
46583;BME280;32309;48.858;8.252;2023-06-22T11:37:57;99939.28;;;29.45;55.81
46583;BME280;32309;48.858;8.252;2023-06-22T11:39:58;99942.25;;;29.36;55.82
46583;BME280;32309;48.858;8.252;2023-06-22T11:41:58;99953.97;;;29.35;56.38
46583;BME280;32309;48.858;8.252;2023-06-22T11:43:59;99964.19;;;29.38;56.01
46583;BME280;32309;48.858;8.252;2023-06-22T11:45:59;99965.31;;;29.49;56.57
46583;BME280;32309;48.858;8.252;2023-06-22T11:48:03;99963.97;;;29.59;55.94
46583;BME280;32309;48.858;8.252;2023-06-22T11:50:04;99955.81;;;29.72;55.77
46583;BME280;32309;48.858;8.252;2023-06-22T11:52:06;99954.78;;;29.73;55.50
46583;BME280;32309;48.858;8.252;2023-06-22T11:54:06;99957.22;;;29.75;55.52
46583;BME280;32309;48.858;8.252;2023-06-22T11:56:06;99958.06;;;29.75;55.57
46583;BME280;32309;48.858;8.252;2023-06-22T11:58:06;99966.56;;;29.65;54.50
46583;BME280;32309;48.858;8.252;2023-06-22T12:00:08;99965.41;;;29.61;54.92
46583;BME280;32309;48.858;8.252;2023-06-22T12:02:16;99961.38;;;29.70;55.39
46583;BME280;32309;48.858;8.252;2023-06-22T12:04:16;99963.19;;;29.77;55.36
46583;BME280;32309;48.858;8.252;2023-06-22T12:06:17;99959.69;;;29.76;54.18
46583;BME280;32309;48.858;8.252;2023-06-22T12:08:17;99966.81;;;29.82;54.95